sensor_id;sensor_type;location;lat;lon;timestamp;temperature;humidity
70271;SHT31;57680;54.292;18.598;2023-03-14T00:02:25;9.59;90.48
70271;SHT31;57680;54.292;18.598;2023-03-14T00:04:54;9.56;90.23
70271;SHT31;57680;54.292;18.598;2023-03-14T00:07:19;9.55;90.18
70271;SHT31;57680;54.292;18.598;2023-03-14T00:09:45;9.56;90.29
70271;SHT31;57680;54.292;18.598;2023-03-14T00:12:10;9.50;89.97
70271;SHT31;57680;54.292;18.598;2023-03-14T00:14:36;9.45;90.23
70271;SHT31;57680;54.292;18.598;2023-03-14T00:17:01;9.49;90.40
70271;SHT31;57680;54.292;18.598;2023-03-14T00:19:27;9.47;90.26
70271;SHT31;57680;54.292;18.598;2023-03-14T00:21:53;9.49;90.32
70271;SHT31;57680;54.292;18.598;2023-03-14T00:24:18;9.47;90.39
70271;SHT31;57680;54.292;18.598;2023-03-14T00:26:44;9.45;90.45
70271;SHT31;57680;54.292;18.598;2023-03-14T00:29:09;9.45;90.31
70271;SHT31;57680;54.292;18.598;2023-03-14T00:31:35;9.45;90.34
70271;SHT31;57680;54.292;18.598;2023-03-14T00:34:01;9.46;90.31
70271;SHT31;57680;54.292;18.598;2023-03-14T00:36:26;9.36;90.42
70271;SHT31;57680;54.292;18.598;2023-03-14T00:38:52;9.39;90.29
70271;SHT31;57680;54.292;18.598;2023-03-14T00:41:20;9.39;90.46
70271;SHT31;57680;54.292;18.598;2023-03-14T00:43:46;9.32;90.49
70271;SHT31;57680;54.292;18.598;2023-03-14T00:46:12;9.34;90.57
70271;SHT31;57680;54.292;18.598;2023-03-14T00:48:37;9.26;90.55
70271;SHT31;57680;54.292;18.598;2023-03-14T00:51:05;9.24;90.82
70271;SHT31;57680;54.292;18.598;2023-03-14T00:53:31;9.29;90.87
70271;SHT31;57680;54.292;18.598;2023-03-14T00:56:05;9.26;90.30
70271;SHT31;57680;54.292;18.598;2023-03-14T00:58:31;9.24;90.77
70271;SHT31;57680;54.292;18.598;2023-03-14T01:00:57;9.29;90.98
70271;SHT31;57680;54.292;18.598;2023-03-14T01:03:22;9.32;90.47
70271;SHT31;57680;54.292;18.598;2023-03-14T01:05:48;9.42;90.45
70271;SHT31;57680;54.292;18.598;2023-03-14T01:08:13;9.42;90.07
70271;SHT31;57680;54.292;18.598;2023-03-14T01:10:40;9.40;90.27
70271;SHT31;57680;54.292;18.598;2023-03-14T01:13:05;9.40;90.03
70271;SHT31;57680;54.292;18.598;2023-03-14T01:15:35;9.38;89.85
70271;SHT31;57680;54.292;18.598;2023-03-14T01:18:00;9.39;90.24
70271;SHT31;57680;54.292;18.598;2023-03-14T01:20:26;9.47;90.28
70271;SHT31;57680;54.292;18.598;2023-03-14T01:22:52;9.69;89.79
70271;SHT31;57680;54.292;18.598;2023-03-14T01:25:17;9.59;89.19
70271;SHT31;57680;54.292;18.598;2023-03-14T01:27:44;9.57;89.45
70271;SHT31;57680;54.292;18.598;2023-03-14T01:30:11;9.63;89.84
70271;SHT31;57680;54.292;18.598;2023-03-14T01:32:38;9.55;89.44
70271;SHT31;57680;54.292;18.598;2023-03-14T01:35:04;9.52;89.49
70271;SHT31;57680;54.292;18.598;2023-03-14T01:37:29;9.55;89.44
70271;SHT31;57680;54.292;18.598;2023-03-14T01:39:55;9.53;89.52
70271;SHT31;57680;54.292;18.598;2023-03-14T01:42:20;9.52;89.66
70271;SHT31;57680;54.292;18.598;2023-03-14T01:44:57;9.43;89.63
70271;SHT31;57680;54.292;18.598;2023-03-14T01:47:24;9.42;89.72
70271;SHT31;57680;54.292;18.598;2023-03-14T01:50:00;9.38;90.07
70271;SHT31;57680;54.292;18.598;2023-03-14T01:55:03;9.34;89.60
70271;SHT31;57680;54.292;18.598;2023-03-14T01:57:40;9.34;90.01
70271;SHT31;57680;54.292;18.598;2023-03-14T02:00:12;9.29;90.04
70271;SHT31;57680;54.292;18.598;2023-03-14T02:02:46;9.24;90.37
70271;SHT31;57680;54.292;18.598;2023-03-14T02:05:15;9.25;90.34
70271;SHT31;57680;54.292;18.598;2023-03-14T02:07:46;9.21;90.26
70271;SHT31;57680;54.292;18.598;2023-03-14T02:10:14;9.16;90.36
70271;SHT31;57680;54.292;18.598;2023-03-14T02:12:40;9.16;90.29
70271;SHT31;57680;54.292;18.598;2023-03-14T02:15:06;9.15;90.65
70271;SHT31;57680;54.292;18.598;2023-03-14T02:17:34;9.12;90.44
70271;SHT31;57680;54.292;18.598;2023-03-14T02:22:43;9.19;90.56
70271;SHT31;57680;54.292;18.598;2023-03-14T02:25:34;9.21;90.38
70271;SHT31;57680;54.292;18.598;2023-03-14T02:28:04;9.15;90.56
70271;SHT31;57680;54.292;18.598;2023-03-14T02:30:32;9.10;90.46
70271;SHT31;57680;54.292;18.598;2023-03-14T02:33:08;9.11;90.63
70271;SHT31;57680;54.292;18.598;2023-03-14T02:35:47;9.15;90.58
70271;SHT31;57680;54.292;18.598;2023-03-14T02:38:25;9.14;90.66
70271;SHT31;57680;54.292;18.598;2023-03-14T02:40:52;9.19;90.72
70271;SHT31;57680;54.292;18.598;2023-03-14T02:43:18;9.15;90.29
70271;SHT31;57680;54.292;18.598;2023-03-14T02:45:46;9.10;90.54
70271;SHT31;57680;54.292;18.598;2023-03-14T02:48:26;9.04;90.68
70271;SHT31;57680;54.292;18.598;2023-03-14T02:50:54;8.95;90.58
70271;SHT31;57680;54.292;18.598;2023-03-14T02:53:29;9.04;90.79
70271;SHT31;57680;54.292;18.598;2023-03-14T02:55:55;9.00;90.87
70271;SHT31;57680;54.292;18.598;2023-03-14T02:58:21;9.00;91.38
70271;SHT31;57680;54.292;18.598;2023-03-14T03:00:47;8.95;91.02
70271;SHT31;57680;54.292;18.598;2023-03-14T03:03:13;9.01;91.49
70271;SHT31;57680;54.292;18.598;2023-03-14T03:05:38;9.03;91.29
70271;SHT31;57680;54.292;18.598;2023-03-14T03:08:05;8.98;90.82
70271;SHT31;57680;54.292;18.598;2023-03-14T03:10:30;8.98;91.13
70271;SHT31;57680;54.292;18.598;2023-03-14T03:12:55;9.00;91.14
70271;SHT31;57680;54.292;18.598;2023-03-14T03:15:22;8.91;90.70
70271;SHT31;57680;54.292;18.598;2023-03-14T03:17:47;8.91;90.85
70271;SHT31;57680;54.292;18.598;2023-03-14T03:20:13;8.89;91.39
70271;SHT31;57680;54.292;18.598;2023-03-14T03:22:38;8.87;91.30
70271;SHT31;57680;54.292;18.598;2023-03-14T03:25:06;8.98;91.64
70271;SHT31;57680;54.292;18.598;2023-03-14T03:27:32;9.07;90.97
70271;SHT31;57680;54.292;18.598;2023-03-14T03:29:58;9.10;90.75
70271;SHT31;57680;54.292;18.598;2023-03-14T03:32:25;9.22;91.10
70271;SHT31;57680;54.292;18.598;2023-03-14T03:34:50;9.32;90.60
70271;SHT31;57680;54.292;18.598;2023-03-14T03:37:16;9.34;90.18
70271;SHT31;57680;54.292;18.598;2023-03-14T03:39:42;9.36;90.09
70271;SHT31;57680;54.292;18.598;2023-03-14T03:42:07;9.36;89.90
70271;SHT31;57680;54.292;18.598;2023-03-14T03:44:33;9.39;89.77
70271;SHT31;57680;54.292;18.598;2023-03-14T03:46:58;9.39;89.95
70271;SHT31;57680;54.292;18.598;2023-03-14T03:49:28;9.40;89.54
70271;SHT31;57680;54.292;18.598;2023-03-14T03:51:53;9.43;89.79
70271;SHT31;57680;54.292;18.598;2023-03-14T03:54:18;9.43;89.52
70271;SHT31;57680;54.292;18.598;2023-03-14T03:56:44;9.39;89.38
70271;SHT31;57680;54.292;18.598;2023-03-14T03:59:09;9.43;89.56
70271;SHT31;57680;54.292;18.598;2023-03-14T04:01:35;9.40;89.60
70271;SHT31;57680;54.292;18.598;2023-03-14T04:04:00;9.40;89.47
70271;SHT31;57680;54.292;18.598;2023-03-14T04:06:25;9.46;89.85
70271;SHT31;57680;54.292;18.598;2023-03-14T04:08:51;9.59;89.68
70271;SHT31;57680;54.292;18.598;2023-03-14T04:11:16;9.65;88.64
70271;SHT31;57680;54.292;18.598;2023-03-14T04:13:42;9.76;88.84
70271;SHT31;57680;54.292;18.598;2023-03-14T04:16:19;9.74;88.36
70271;SHT31;57680;54.292;18.598;2023-03-14T04:18:45;9.74;88.36
70271;SHT31;57680;54.292;18.598;2023-03-14T04:21:11;9.74;88.39
70271;SHT31;57680;54.292;18.598;2023-03-14T04:23:36;9.77;88.37
70271;SHT31;57680;54.292;18.598;2023-03-14T04:26:01;9.79;88.37
70271;SHT31;57680;54.292;18.598;2023-03-14T04:28:27;9.86;88.27
70271;SHT31;57680;54.292;18.598;2023-03-14T04:30:52;9.80;88.06
70271;SHT31;57680;54.292;18.598;2023-03-14T04:33:18;9.84;88.22
70271;SHT31;57680;54.292;18.598;2023-03-14T04:35:44;9.83;87.87
70271;SHT31;57680;54.292;18.598;2023-03-14T04:38:11;9.77;88.12
70271;SHT31;57680;54.292;18.598;2023-03-14T04:40:38;9.69;88.40
70271;SHT31;57680;54.292;18.598;2023-03-14T04:43:05;9.65;88.13
70271;SHT31;57680;54.292;18.598;2023-03-14T04:45:30;9.59;88.48
70271;SHT31;57680;54.292;18.598;2023-03-14T04:47:55;9.57;88.84
70271;SHT31;57680;54.292;18.598;2023-03-14T04:50:21;9.57;88.75
70271;SHT31;57680;54.292;18.598;2023-03-14T04:52:47;9.57;88.84
70271;SHT31;57680;54.292;18.598;2023-03-14T04:55:12;9.53;88.79
70271;SHT31;57680;54.292;18.598;2023-03-14T04:57:38;9.47;88.86
70271;SHT31;57680;54.292;18.598;2023-03-14T05:00:04;9.42;88.81
70271;SHT31;57680;54.292;18.598;2023-03-14T05:02:29;9.38;89.15
70271;SHT31;57680;54.292;18.598;2023-03-14T05:04:55;9.31;89.22
70271;SHT31;57680;54.292;18.598;2023-03-14T05:07:21;9.26;89.49
70271;SHT31;57680;54.292;18.598;2023-03-14T05:09:46;9.26;89.73
70271;SHT31;57680;54.292;18.598;2023-03-14T05:12:11;9.26;89.73
70271;SHT31;57680;54.292;18.598;2023-03-14T05:14:37;9.19;89.61
70271;SHT31;57680;54.292;18.598;2023-03-14T05:17:02;9.15;89.64
70271;SHT31;57680;54.292;18.598;2023-03-14T05:19:28;9.16;89.80
70271;SHT31;57680;54.292;18.598;2023-03-14T05:21:53;9.12;90.03
70271;SHT31;57680;54.292;18.598;2023-03-14T05:24:19;9.10;90.04
70271;SHT31;57680;54.292;18.598;2023-03-14T05:26:44;9.07;90.03
70271;SHT31;57680;54.292;18.598;2023-03-14T05:29:10;9.03;90.17
70271;SHT31;57680;54.292;18.598;2023-03-14T05:31:35;9.04;90.39
70271;SHT31;57680;54.292;18.598;2023-03-14T05:34:00;9.07;90.16
70271;SHT31;57680;54.292;18.598;2023-03-14T05:36:26;9.05;90.24
70271;SHT31;57680;54.292;18.598;2023-03-14T05:38:52;9.04;90.11
70271;SHT31;57680;54.292;18.598;2023-03-14T05:41:17;9.03;90.26
70271;SHT31;57680;54.292;18.598;2023-03-14T05:43:43;9.05;90.51
70271;SHT31;57680;54.292;18.598;2023-03-14T05:46:08;9.05;90.25
70271;SHT31;57680;54.292;18.598;2023-03-14T05:48:33;9.04;90.36
70271;SHT31;57680;54.292;18.598;2023-03-14T05:50:59;9.01;90.44
70271;SHT31;57680;54.292;18.598;2023-03-14T05:53:25;8.98;90.36
70271;SHT31;57680;54.292;18.598;2023-03-14T05:55:54;8.94;90.71
70271;SHT31;57680;54.292;18.598;2023-03-14T05:58:20;8.97;90.63
70271;SHT31;57680;54.292;18.598;2023-03-14T06:00:45;9.00;90.67
70271;SHT31;57680;54.292;18.598;2023-03-14T06:03:10;8.98;90.69
70271;SHT31;57680;54.292;18.598;2023-03-14T06:05:36;9.03;90.77
70271;SHT31;57680;54.292;18.598;2023-03-14T06:08:02;9.01;90.75
70271;SHT31;57680;54.292;18.598;2023-03-14T06:10:27;9.05;91.20
70271;SHT31;57680;54.292;18.598;2023-03-14T06:12:53;9.08;91.05
70271;SHT31;57680;54.292;18.598;2023-03-14T06:15:18;9.12;90.83
70271;SHT31;57680;54.292;18.598;2023-03-14T06:17:44;9.15;90.91
70271;SHT31;57680;54.292;18.598;2023-03-14T06:20:10;9.22;90.90
70271;SHT31;57680;54.292;18.598;2023-03-14T06:22:36;9.24;90.81
70271;SHT31;57680;54.292;18.598;2023-03-14T06:25:02;9.31;90.61
70271;SHT31;57680;54.292;18.598;2023-03-14T06:27:27;9.35;90.72
70271;SHT31;57680;54.292;18.598;2023-03-14T06:29:53;9.38;90.53
70271;SHT31;57680;54.292;18.598;2023-03-14T06:32:18;9.46;90.38
70271;SHT31;57680;54.292;18.598;2023-03-14T06:34:44;9.47;90.41
70271;SHT31;57680;54.292;18.598;2023-03-14T06:37:09;9.52;90.26
70271;SHT31;57680;54.292;18.598;2023-03-14T06:39:35;9.55;90.27
70271;SHT31;57680;54.292;18.598;2023-03-14T06:42:00;9.60;90.33
70271;SHT31;57680;54.292;18.598;2023-03-14T06:44:26;9.63;90.27
70271;SHT31;57680;54.292;18.598;2023-03-14T06:46:51;9.70;90.12
70271;SHT31;57680;54.292;18.598;2023-03-14T06:49:17;9.74;90.11
70271;SHT31;57680;54.292;18.598;2023-03-14T06:51:42;9.76;90.07
70271;SHT31;57680;54.292;18.598;2023-03-14T06:54:08;9.83;90.10
70271;SHT31;57680;54.292;18.598;2023-03-14T06:56:33;9.87;90.08
70271;SHT31;57680;54.292;18.598;2023-03-14T06:58:58;9.96;90.11
70271;SHT31;57680;54.292;18.598;2023-03-14T07:01:26;9.96;90.15
70271;SHT31;57680;54.292;18.598;2023-03-14T07:03:52;9.97;90.21
70271;SHT31;57680;54.292;18.598;2023-03-14T07:06:18;10.00;90.20
70271;SHT31;57680;54.292;18.598;2023-03-14T07:08:43;10.03;90.17
70271;SHT31;57680;54.292;18.598;2023-03-14T07:11:09;10.03;90.08
70271;SHT31;57680;54.292;18.598;2023-03-14T07:13:35;10.04;90.19
70271;SHT31;57680;54.292;18.598;2023-03-14T07:16:00;10.03;90.19
70271;SHT31;57680;54.292;18.598;2023-03-14T07:18:26;10.03;90.35
70271;SHT31;57680;54.292;18.598;2023-03-14T07:20:51;10.07;90.40
70271;SHT31;57680;54.292;18.598;2023-03-14T07:23:17;10.08;90.48
70271;SHT31;57680;54.292;18.598;2023-03-14T07:25:42;10.14;90.55
70271;SHT31;57680;54.292;18.598;2023-03-14T07:28:08;10.27;90.48
70271;SHT31;57680;54.292;18.598;2023-03-14T07:30:33;10.34;90.31
70271;SHT31;57680;54.292;18.598;2023-03-14T07:32:59;10.42;90.04
70271;SHT31;57680;54.292;18.598;2023-03-14T07:35:25;10.51;90.03
70271;SHT31;57680;54.292;18.598;2023-03-14T07:37:50;10.61;89.79
70271;SHT31;57680;54.292;18.598;2023-03-14T07:40:16;10.79;89.57
70271;SHT31;57680;54.292;18.598;2023-03-14T07:42:42;10.96;89.32
70271;SHT31;57680;54.292;18.598;2023-03-14T07:45:09;11.12;88.81
70271;SHT31;57680;54.292;18.598;2023-03-14T07:47:35;11.26;88.20
70271;SHT31;57680;54.292;18.598;2023-03-14T07:50:00;11.31;87.99
70271;SHT31;57680;54.292;18.598;2023-03-14T07:52:26;11.37;87.89
70271;SHT31;57680;54.292;18.598;2023-03-14T07:54:52;11.50;87.70
70271;SHT31;57680;54.292;18.598;2023-03-14T07:57:17;11.64;87.22
70271;SHT31;57680;54.292;18.598;2023-03-14T07:59:43;11.65;86.46
70271;SHT31;57680;54.292;18.598;2023-03-14T08:02:12;11.71;86.70
70271;SHT31;57680;54.292;18.598;2023-03-14T08:04:39;11.79;86.43
70271;SHT31;57680;54.292;18.598;2023-03-14T08:07:05;11.92;85.81
70271;SHT31;57680;54.292;18.598;2023-03-14T08:09:31;12.04;85.57
70271;SHT31;57680;54.292;18.598;2023-03-14T08:11:57;12.02;85.04
70271;SHT31;57680;54.292;18.598;2023-03-14T08:14:22;12.04;85.11
70271;SHT31;57680;54.292;18.598;2023-03-14T08:16:47;12.06;84.78
70271;SHT31;57680;54.292;18.598;2023-03-14T08:19:13;12.06;85.05
70271;SHT31;57680;54.292;18.598;2023-03-14T08:21:38;12.11;85.00
70271;SHT31;57680;54.292;18.598;2023-03-14T08:24:04;12.16;85.19
70271;SHT31;57680;54.292;18.598;2023-03-14T08:26:29;12.21;84.84
70271;SHT31;57680;54.292;18.598;2023-03-14T08:28:55;12.32;84.75
70271;SHT31;57680;54.292;18.598;2023-03-14T08:31:20;12.44;84.69
70271;SHT31;57680;54.292;18.598;2023-03-14T08:33:46;12.44;83.58
70271;SHT31;57680;54.292;18.598;2023-03-14T08:36:11;12.52;83.73
70271;SHT31;57680;54.292;18.598;2023-03-14T08:38:37;12.54;83.81
70271;SHT31;57680;54.292;18.598;2023-03-14T08:41:02;12.47;83.74
70271;SHT31;57680;54.292;18.598;2023-03-14T08:43:28;12.36;83.77
70271;SHT31;57680;54.292;18.598;2023-03-14T08:45:57;12.33;84.20
70271;SHT31;57680;54.292;18.598;2023-03-14T08:48:23;12.29;83.96
70271;SHT31;57680;54.292;18.598;2023-03-14T08:50:49;12.28;84.17
70271;SHT31;57680;54.292;18.598;2023-03-14T08:53:14;12.29;84.25
70271;SHT31;57680;54.292;18.598;2023-03-14T08:55:40;12.28;83.96
70271;SHT31;57680;54.292;18.598;2023-03-14T08:58:06;12.30;84.08
70271;SHT31;57680;54.292;18.598;2023-03-14T09:00:31;12.35;84.14
70271;SHT31;57680;54.292;18.598;2023-03-14T09:02:57;12.44;84.08
70271;SHT31;57680;54.292;18.598;2023-03-14T09:05:22;12.54;83.64
70271;SHT31;57680;54.292;18.598;2023-03-14T09:07:48;12.64;83.58
70271;SHT31;57680;54.292;18.598;2023-03-14T09:10:13;12.81;83.50
70271;SHT31;57680;54.292;18.598;2023-03-14T09:12:38;13.01;83.30
70271;SHT31;57680;54.292;18.598;2023-03-14T09:15:04;13.12;82.60
70271;SHT31;57680;54.292;18.598;2023-03-14T09:17:30;13.16;82.13
70271;SHT31;57680;54.292;18.598;2023-03-14T09:19:55;13.16;82.19
70271;SHT31;57680;54.292;18.598;2023-03-14T09:22:21;13.16;81.94
70271;SHT31;57680;54.292;18.598;2023-03-14T09:24:46;13.16;81.71
70271;SHT31;57680;54.292;18.598;2023-03-14T09:27:12;13.11;81.87
70271;SHT31;57680;54.292;18.598;2023-03-14T09:29:38;13.00;81.81
70271;SHT31;57680;54.292;18.598;2023-03-14T09:32:04;12.88;82.65
70271;SHT31;57680;54.292;18.598;2023-03-14T09:34:29;12.85;82.45
70271;SHT31;57680;54.292;18.598;2023-03-14T09:36:55;12.80;82.56
70271;SHT31;57680;54.292;18.598;2023-03-14T09:39:20;12.72;82.94
70271;SHT31;57680;54.292;18.598;2023-03-14T09:41:48;12.63;82.93
70271;SHT31;57680;54.292;18.598;2023-03-14T09:44:36;12.60;82.91
70271;SHT31;57680;54.292;18.598;2023-03-14T09:47:06;12.47;83.48
70271;SHT31;57680;54.292;18.598;2023-03-14T09:49:35;12.35;83.91
70271;SHT31;57680;54.292;18.598;2023-03-14T09:52:06;12.23;84.25
70271;SHT31;57680;54.292;18.598;2023-03-14T09:54:40;12.19;84.38
70271;SHT31;57680;54.292;18.598;2023-03-14T09:57:14;12.09;84.61
70271;SHT31;57680;54.292;18.598;2023-03-14T09:59:43;11.99;84.62
70271;SHT31;57680;54.292;18.598;2023-03-14T10:02:20;11.91;85.04
70271;SHT31;57680;54.292;18.598;2023-03-14T10:04:48;11.84;85.23
70271;SHT31;57680;54.292;18.598;2023-03-14T10:07:33;11.81;85.50
70271;SHT31;57680;54.292;18.598;2023-03-14T10:10:00;11.82;85.49
70271;SHT31;57680;54.292;18.598;2023-03-14T10:12:35;11.79;85.46
70271;SHT31;57680;54.292;18.598;2023-03-14T10:15:12;11.82;84.98
70271;SHT31;57680;54.292;18.598;2023-03-14T10:17:48;11.84;84.76
70271;SHT31;57680;54.292;18.598;2023-03-14T10:20:36;11.79;85.04
70271;SHT31;57680;54.292;18.598;2023-03-14T10:23:04;11.73;85.31
70271;SHT31;57680;54.292;18.598;2023-03-14T10:25:38;11.77;84.65
70271;SHT31;57680;54.292;18.598;2023-03-14T10:28:05;11.85;84.66
70271;SHT31;57680;54.292;18.598;2023-03-14T10:30:44;11.91;84.70
70271;SHT31;57680;54.292;18.598;2023-03-14T10:33:21;12.01;84.32
70271;SHT31;57680;54.292;18.598;2023-03-14T10:36:05;12.05;84.63
70271;SHT31;57680;54.292;18.598;2023-03-14T10:38:36;12.05;84.62
70271;SHT31;57680;54.292;18.598;2023-03-14T10:41:04;12.06;84.61
70271;SHT31;57680;54.292;18.598;2023-03-14T10:43:40;12.12;84.35
70271;SHT31;57680;54.292;18.598;2023-03-14T10:46:13;12.21;83.94
70271;SHT31;57680;54.292;18.598;2023-03-14T10:48:39;12.28;83.83
70271;SHT31;57680;54.292;18.598;2023-03-14T10:51:10;12.29;83.64
70271;SHT31;57680;54.292;18.598;2023-03-14T10:53:43;12.26;83.45
70271;SHT31;57680;54.292;18.598;2023-03-14T10:56:18;12.29;83.54
70271;SHT31;57680;54.292;18.598;2023-03-14T10:58:46;12.35;84.14
70271;SHT31;57680;54.292;18.598;2023-03-14T11:07:03;12.60;83.02
70271;SHT31;57680;54.292;18.598;2023-03-14T11:21:02;12.88;82.23
70271;SHT31;57680;54.292;18.598;2023-03-14T11:29:12;13.24;81.20
70271;SHT31;57680;54.292;18.598;2023-03-14T11:31:44;13.29;80.63
70271;SHT31;57680;54.292;18.598;2023-03-14T11:36:52;13.48;80.43
70271;SHT31;57680;54.292;18.598;2023-03-14T11:39:21;13.45;80.35
70271;SHT31;57680;54.292;18.598;2023-03-14T11:41:51;13.43;80.29
70271;SHT31;57680;54.292;18.598;2023-03-14T11:44:25;13.59;80.01
70271;SHT31;57680;54.292;18.598;2023-03-14T11:47:03;13.77;79.90
70271;SHT31;57680;54.292;18.598;2023-03-14T11:49:51;14.00;79.24
70271;SHT31;57680;54.292;18.598;2023-03-14T11:52:55;14.34;77.93
70271;SHT31;57680;54.292;18.598;2023-03-14T11:55:28;14.25;77.43
70271;SHT31;57680;54.292;18.598;2023-03-14T11:58:01;14.48;77.43
70271;SHT31;57680;54.292;18.598;2023-03-14T12:00:28;14.68;77.09
70271;SHT31;57680;54.292;18.598;2023-03-14T12:03:16;14.55;76.61
70271;SHT31;57680;54.292;18.598;2023-03-14T12:05:48;14.37;77.38
70271;SHT31;57680;54.292;18.598;2023-03-14T12:08:39;14.20;76.34
70271;SHT31;57680;54.292;18.598;2023-03-14T12:11:19;14.35;77.83
70271;SHT31;57680;54.292;18.598;2023-03-14T12:13:49;14.38;76.13
70271;SHT31;57680;54.292;18.598;2023-03-14T12:18:53;14.24;76.52
70271;SHT31;57680;54.292;18.598;2023-03-14T12:21:41;14.30;76.23
70271;SHT31;57680;54.292;18.598;2023-03-14T12:24:17;14.03;75.64
70271;SHT31;57680;54.292;18.598;2023-03-14T12:26:55;13.91;76.66
70271;SHT31;57680;54.292;18.598;2023-03-14T12:29:22;13.87;76.28
70271;SHT31;57680;54.292;18.598;2023-03-14T12:31:49;13.83;75.86
70271;SHT31;57680;54.292;18.598;2023-03-14T12:34:32;13.77;76.37
70271;SHT31;57680;54.292;18.598;2023-03-14T12:37:16;13.72;75.93
70271;SHT31;57680;54.292;18.598;2023-03-14T12:43:00;13.80;76.49
70271;SHT31;57680;54.292;18.598;2023-03-14T12:45:31;13.83;75.48
70271;SHT31;57680;54.292;18.598;2023-03-14T12:51:12;14.03;75.39
70271;SHT31;57680;54.292;18.598;2023-03-14T12:56:48;13.89;74.33
70271;SHT31;57680;54.292;18.598;2023-03-14T12:59:36;14.04;75.70
70271;SHT31;57680;54.292;18.598;2023-03-14T13:04:37;14.13;75.06
70271;SHT31;57680;54.292;18.598;2023-03-14T13:10:01;14.02;74.54
70271;SHT31;57680;54.292;18.598;2023-03-14T13:12:29;14.06;73.52
70271;SHT31;57680;54.292;18.598;2023-03-14T13:14:58;13.97;73.18
70271;SHT31;57680;54.292;18.598;2023-03-14T13:17:31;13.96;73.89
70271;SHT31;57680;54.292;18.598;2023-03-14T13:20:02;13.97;74.45
70271;SHT31;57680;54.292;18.598;2023-03-14T13:22:30;13.99;74.64
70271;SHT31;57680;54.292;18.598;2023-03-14T13:25:03;14.17;74.89
70271;SHT31;57680;54.292;18.598;2023-03-14T13:27:32;14.10;74.66
70271;SHT31;57680;54.292;18.598;2023-03-14T13:29:58;14.09;74.21
70271;SHT31;57680;54.292;18.598;2023-03-14T13:32:28;14.20;74.21
70271;SHT31;57680;54.292;18.598;2023-03-14T13:34:57;14.30;73.24
70271;SHT31;57680;54.292;18.598;2023-03-14T13:37:24;14.48;72.38
70271;SHT31;57680;54.292;18.598;2023-03-14T13:39:55;14.65;71.63
70271;SHT31;57680;54.292;18.598;2023-03-14T13:42:25;14.62;70.69
70271;SHT31;57680;54.292;18.598;2023-03-14T13:44:53;14.57;71.08
70271;SHT31;57680;54.292;18.598;2023-03-14T13:47:20;14.44;71.58
70271;SHT31;57680;54.292;18.598;2023-03-14T13:49:48;14.27;71.84
70271;SHT31;57680;54.292;18.598;2023-03-14T13:52:36;14.17;71.60
70271;SHT31;57680;54.292;18.598;2023-03-14T13:55:04;14.33;72.35
70271;SHT31;57680;54.292;18.598;2023-03-14T13:58:02;14.51;72.70
70271;SHT31;57680;54.292;18.598;2023-03-14T14:00:28;14.52;70.99
70271;SHT31;57680;54.292;18.598;2023-03-14T14:02:55;14.41;71.08
70271;SHT31;57680;54.292;18.598;2023-03-14T14:05:22;14.24;71.44
70271;SHT31;57680;54.292;18.598;2023-03-14T14:07:49;14.06;71.84
70271;SHT31;57680;54.292;18.598;2023-03-14T14:10:15;13.89;72.28
70271;SHT31;57680;54.292;18.598;2023-03-14T14:15:19;13.93;73.05
70271;SHT31;57680;54.292;18.598;2023-03-14T14:17:54;14.25;72.87
70271;SHT31;57680;54.292;18.598;2023-03-14T14:20:30;14.27;73.95
70271;SHT31;57680;54.292;18.598;2023-03-14T14:22:56;13.93;75.38
70271;SHT31;57680;54.292;18.598;2023-03-14T14:25:21;13.63;77.02
70271;SHT31;57680;54.292;18.598;2023-03-14T14:27:49;13.34;78.06
70271;SHT31;57680;54.292;18.598;2023-03-14T14:32:43;12.94;79.29
70271;SHT31;57680;54.292;18.598;2023-03-14T14:35:32;12.77;79.46
70271;SHT31;57680;54.292;18.598;2023-03-14T14:37:58;12.72;79.66
70271;SHT31;57680;54.292;18.598;2023-03-14T14:40:26;12.73;79.87
70271;SHT31;57680;54.292;18.598;2023-03-14T14:42:52;12.73;80.11
70271;SHT31;57680;54.292;18.598;2023-03-14T14:45:20;12.70;79.71
70271;SHT31;57680;54.292;18.598;2023-03-14T14:47:49;12.74;79.73
70271;SHT31;57680;54.292;18.598;2023-03-14T14:50:32;12.67;79.63
70271;SHT31;57680;54.292;18.598;2023-03-14T14:52:59;12.60;79.49
70271;SHT31;57680;54.292;18.598;2023-03-14T14:55:33;12.59;79.91
70271;SHT31;57680;54.292;18.598;2023-03-14T15:00:57;12.47;80.15
70271;SHT31;57680;54.292;18.598;2023-03-14T15:03:26;12.47;80.42
70271;SHT31;57680;54.292;18.598;2023-03-14T15:05:53;12.50;80.31
70271;SHT31;57680;54.292;18.598;2023-03-14T15:08:18;12.54;80.30
70271;SHT31;57680;54.292;18.598;2023-03-14T15:10:44;12.52;80.29
70271;SHT31;57680;54.292;18.598;2023-03-14T15:13:09;12.50;80.25
70271;SHT31;57680;54.292;18.598;2023-03-14T15:15:34;12.52;79.84
70271;SHT31;57680;54.292;18.598;2023-03-14T15:18:00;12.52;79.82
70271;SHT31;57680;54.292;18.598;2023-03-14T15:20:25;12.52;79.34
70271;SHT31;57680;54.292;18.598;2023-03-14T15:22:51;12.47;79.30
70271;SHT31;57680;54.292;18.598;2023-03-14T15:25:17;12.43;79.28
70271;SHT31;57680;54.292;18.598;2023-03-14T15:27:42;12.37;79.28
70271;SHT31;57680;54.292;18.598;2023-03-14T15:30:15;12.30;79.69
70271;SHT31;57680;54.292;18.598;2023-03-14T15:32:41;12.29;79.38
70271;SHT31;57680;54.292;18.598;2023-03-14T15:35:07;12.22;78.95
70271;SHT31;57680;54.292;18.598;2023-03-14T15:37:33;12.22;78.71
70271;SHT31;57680;54.292;18.598;2023-03-14T15:39:59;12.19;78.68
70271;SHT31;57680;54.292;18.598;2023-03-14T15:42:24;12.15;78.57
70271;SHT31;57680;54.292;18.598;2023-03-14T15:44:50;12.12;78.64
70271;SHT31;57680;54.292;18.598;2023-03-14T15:47:15;12.11;78.68
70271;SHT31;57680;54.292;18.598;2023-03-14T15:49:41;12.04;78.96
70271;SHT31;57680;54.292;18.598;2023-03-14T15:52:07;12.01;79.24
70271;SHT31;57680;54.292;18.598;2023-03-14T15:54:33;11.98;79.67
70271;SHT31;57680;54.292;18.598;2023-03-14T15:56:58;11.96;79.58
70271;SHT31;57680;54.292;18.598;2023-03-14T15:59:24;11.94;80.02
70271;SHT31;57680;54.292;18.598;2023-03-14T16:01:50;11.94;79.96
70271;SHT31;57680;54.292;18.598;2023-03-14T16:04:16;11.94;80.24
70271;SHT31;57680;54.292;18.598;2023-03-14T16:06:42;11.89;80.32
70271;SHT31;57680;54.292;18.598;2023-03-14T16:09:08;11.94;80.61
70271;SHT31;57680;54.292;18.598;2023-03-14T16:11:33;11.88;81.62
70271;SHT31;57680;54.292;18.598;2023-03-14T16:13:58;11.78;82.05
70271;SHT31;57680;54.292;18.598;2023-03-14T16:16:24;11.74;82.04
70271;SHT31;57680;54.292;18.598;2023-03-14T16:18:49;11.58;81.30
70271;SHT31;57680;54.292;18.598;2023-03-14T16:21:17;11.38;81.60
70271;SHT31;57680;54.292;18.598;2023-03-14T16:23:43;11.22;82.01
70271;SHT31;57680;54.292;18.598;2023-03-14T16:26:14;11.07;82.29